createdAt,value
2018-12-03T00:00:24.128Z,99258.27
2018-12-03T00:05:26.275Z,99260.50
2018-12-03T00:10:28.444Z,99251.30
2018-12-03T00:15:30.570Z,99243.39
2018-12-03T00:20:32.715Z,99241.65
2018-12-03T00:25:34.875Z,99237.52
2018-12-03T00:30:36.993Z,99228.36
2018-12-03T00:35:39.126Z,99233.01
2018-12-03T00:40:41.386Z,99233.18
2018-12-03T00:45:43.568Z,99240.68
2018-12-03T00:50:45.674Z,99236.05
2018-12-03T00:55:47.801Z,99234.78
2018-12-03T01:00:49.919Z,99243.69
2018-12-03T01:05:52.125Z,99242.73
2018-12-03T01:10:54.279Z,99236.03
2018-12-03T01:15:56.439Z,99236.41
2018-12-03T01:20:58.622Z,99237.17
2018-12-03T01:26:00.723Z,99243.61
2018-12-03T01:31:02.906Z,99243.99
2018-12-03T01:36:05.388Z,99248.94
2018-12-03T01:41:07.518Z,99256.11
2018-12-03T01:46:09.629Z,99251.05
2018-12-03T01:51:11.759Z,99253.27
2018-12-03T01:56:13.875Z,99247.37
2018-12-03T02:01:16.001Z,99247.77
2018-12-03T02:06:18.160Z,99248.71
2018-12-03T02:11:20.277Z,99243.66
2018-12-03T02:16:22.937Z,99248.23
2018-12-03T02:21:25.026Z,99243.27
2018-12-03T02:26:27.148Z,99238.47
2018-12-03T02:31:29.291Z,99233.44
2018-12-03T02:36:31.418Z,99230.66
2018-12-03T02:41:33.525Z,99228.15
2018-12-03T02:46:35.647Z,99224.77
2018-12-03T02:51:37.769Z,99222.89
2018-12-03T02:56:39.881Z,99218.19
2018-12-03T03:01:41.990Z,99213.52
2018-12-03T03:06:44.075Z,99210.67
2018-12-03T03:11:46.198Z,99205.64
2018-12-03T03:16:48.323Z,99196.80
2018-12-03T03:21:50.441Z,99196.70
2018-12-03T03:26:52.560Z,99198.41
2018-12-03T03:31:54.701Z,99200.66
2018-12-03T03:36:56.829Z,99193.02
2018-12-03T03:41:58.987Z,99184.59
2018-12-03T03:47:01.178Z,99175.37
2018-12-03T03:52:03.327Z,99176.63
2018-12-03T03:57:05.462Z,99177.50
2018-12-03T04:02:07.601Z,99176.25
2018-12-03T04:07:09.747Z,99183.31
2018-12-03T04:12:11.860Z,99185.52
2018-12-03T04:17:13.964Z,99180.34
2018-12-03T04:22:16.060Z,99180.81
2018-12-03T04:27:18.178Z,99175.69
2018-12-03T04:32:20.324Z,99163.95
2018-12-03T04:37:22.453Z,99166.95
2018-12-03T04:42:24.561Z,99155.58
2018-12-03T04:47:26.668Z,99166.53
2018-12-03T04:52:28.786Z,99161.41
2018-12-03T04:57:30.911Z,99149.22
2018-12-03T05:02:33.037Z,99159.82
2018-12-03T05:07:35.218Z,99151.42
2018-12-03T05:12:37.365Z,99154.02
2018-12-03T05:17:39.831Z,99151.55
2018-12-03T05:22:41.993Z,99150.70
2018-12-03T05:27:44.097Z,99141.95
2018-12-03T05:32:46.516Z,99135.22
2018-12-03T05:37:48.620Z,99136.09
2018-12-03T05:42:50.776Z,99123.48
2018-12-03T05:47:52.904Z,99126.48
2018-12-03T05:52:55.032Z,99125.28
2018-12-03T05:57:57.149Z,99121.52
2018-12-03T06:02:59.306Z,99124.50
2018-12-03T06:08:01.434Z,99121.62
2018-12-03T06:13:03.620Z,99111.88
2018-12-03T06:18:05.822Z,99114.80
2018-12-03T06:23:07.998Z,99116.58
2018-12-03T06:28:10.106Z,99110.63
2018-12-03T06:33:12.216Z,99120.45
2018-12-03T06:38:15.535Z,99116.20
2018-12-03T06:43:16.511Z,99125.54
2018-12-03T06:48:20.506Z,99117.58
2018-12-03T06:53:22.649Z,99112.53
2018-12-03T06:58:24.773Z,99108.73
2018-12-03T07:03:26.889Z,99111.61
2018-12-03T07:08:29.012Z,99132.39
2018-12-03T07:13:31.140Z,99143.33
2018-12-03T07:18:33.240Z,99134.11
2018-12-03T07:23:35.360Z,99140.81
2018-12-03T07:28:37.498Z,99152.27
2018-12-03T07:33:39.657Z,99151.27
2018-12-03T07:38:41.776Z,99145.09
2018-12-03T07:43:43.877Z,99172.32
2018-12-03T07:48:46.013Z,99156.37
2018-12-03T07:53:48.133Z,99151.25
2018-12-03T07:58:50.281Z,99164.40
2018-12-03T08:03:52.811Z,99166.46
2018-12-03T08:08:54.909Z,99169.34
2018-12-03T08:14:01.112Z,99172.23
2018-12-03T08:19:03.237Z,99177.30
2018-12-03T08:24:08.597Z,99183.20
2018-12-03T08:29:10.759Z,99187.79
2018-12-03T08:34:12.897Z,99203.38
2018-12-03T08:39:15.026Z,99189.52
2018-12-03T08:44:17.193Z,99189.91
2018-12-03T08:49:19.294Z,99199.08
2018-12-03T08:54:21.411Z,99206.77
2018-12-03T08:59:23.556Z,99217.59
2018-12-03T09:04:25.663Z,99221.48
2018-12-03T09:09:27.804Z,99220.06
2018-12-03T09:14:31.809Z,99233.70
2018-12-03T09:19:33.927Z,99228.64
2018-12-03T09:24:36.057Z,99225.59
2018-12-03T09:29:38.185Z,99232.83
2018-12-03T09:34:40.358Z,99234.08
2018-12-03T09:39:42.545Z,99222.80
2018-12-03T09:44:44.636Z,99228.33
2018-12-03T09:49:46.776Z,99229.67
2018-12-03T09:54:48.882Z,99219.91
2018-12-03T09:59:51.027Z,99231.11
2018-12-03T10:04:56.123Z,99231.73
2018-12-03T10:09:58.250Z,99238.87
2018-12-03T10:15:00.382Z,99228.00
2018-12-03T10:20:02.673Z,99229.03
2018-12-03T10:25:11.114Z,99234.00
2018-12-03T10:30:15.681Z,99228.97
2018-12-03T10:35:18.007Z,99222.11
2018-12-03T10:40:22.417Z,99225.02
2018-12-03T10:45:26.256Z,99234.17
2018-12-03T10:50:26.772Z,99223.60
2018-12-03T10:55:28.921Z,99234.23
2018-12-03T11:00:36.954Z,99230.84
2018-12-03T11:05:44.961Z,99229.97
2018-12-03T11:10:47.112Z,99231.57
2018-12-03T11:15:49.272Z,99234.86
2018-12-03T11:20:51.433Z,99227.70
2018-12-03T11:25:53.639Z,99222.23
2018-12-03T11:30:55.778Z,99225.72
2018-12-03T11:35:59.008Z,99239.19
2018-12-03T11:41:01.140Z,99229.03
2018-12-03T11:46:03.303Z,99225.61
2018-12-03T11:51:05.473Z,99229.83
2018-12-03T11:56:07.626Z,99225.66
2018-12-03T12:01:09.744Z,99228.56
2018-12-03T12:06:11.894Z,99234.08
2018-12-03T12:11:14.006Z,99234.84
2018-12-03T12:16:16.158Z,99221.48
2018-12-03T12:21:18.297Z,99220.66
2018-12-03T12:26:20.461Z,99217.83
2018-12-03T12:31:22.647Z,99220.67
2018-12-03T12:36:24.830Z,99222.81
2018-12-03T12:41:26.989Z,99219.84
2018-12-03T12:46:29.176Z,99225.41
2018-12-03T12:51:31.289Z,99217.77
2018-12-03T12:56:33.409Z,99217.86
2018-12-03T13:01:36.006Z,99221.08
2018-12-03T13:06:38.140Z,99218.06
2018-12-03T13:11:40.543Z,99219.27
2018-12-03T13:16:42.699Z,99223.98
2018-12-03T13:21:44.839Z,99228.93
2018-12-03T13:26:46.998Z,99222.27
2018-12-03T13:31:49.230Z,99225.94
2018-12-03T13:36:51.481Z,99212.27
2018-12-03T13:41:53.605Z,99223.52
2018-12-03T13:46:55.795Z,99220.60
2018-12-03T13:51:57.970Z,99226.89
2018-12-03T13:57:00.390Z,99226.31
2018-12-03T14:02:02.586Z,99225.39
2018-12-03T14:07:13.890Z,99245.27
2018-12-03T14:12:23.662Z,99233.09
2018-12-03T14:17:37.114Z,99228.93
2018-12-03T14:22:43.899Z,99238.95
2018-12-03T14:27:46.071Z,99246.30
2018-12-03T14:32:48.237Z,99248.09
2018-12-03T14:37:50.469Z,99249.62
2018-12-03T14:42:52.637Z,99252.16
2018-12-03T14:47:54.827Z,99244.75
2018-12-03T14:52:57.001Z,99252.25
2018-12-03T14:57:59.192Z,99260.58
2018-12-03T15:03:01.367Z,99262.32
2018-12-03T15:08:03.524Z,99258.86
2018-12-03T15:13:05.718Z,99264.44
2018-12-03T15:18:07.876Z,99257.66
2018-12-03T15:23:10.069Z,99258.86
2018-12-03T15:28:15.471Z,99253.87
2018-12-03T15:33:14.378Z,99263.39
2018-12-03T15:38:16.566Z,99260.28
2018-12-03T15:43:18.720Z,99252.91
2018-12-03T15:48:20.870Z,99251.50
2018-12-03T15:53:23.034Z,99268.25
2018-12-03T15:58:25.213Z,99270.45
2018-12-03T16:03:27.400Z,99280.15
2018-12-03T16:08:29.519Z,99272.03
2018-12-03T16:13:31.681Z,99286.29
2018-12-03T16:19:17.595Z,99261.95
2018-12-03T16:24:19.737Z,99269.72
2018-12-03T16:29:21.978Z,99270.94
2018-12-03T16:34:24.066Z,99275.20
2018-12-03T16:39:26.178Z,99277.56
2018-12-03T16:44:28.420Z,99283.77
2018-12-03T16:49:30.641Z,99294.50
2018-12-03T16:54:32.796Z,99294.75
2018-12-03T16:59:34.885Z,99291.28
2018-12-03T17:04:37.012Z,99293.02
2018-12-03T17:09:39.290Z,99301.67
2018-12-03T17:14:41.498Z,99317.50
2018-12-03T17:19:43.825Z,99319.08
2018-12-03T17:24:47.158Z,99326.39
2018-12-03T17:29:52.475Z,99322.91
2018-12-03T17:34:54.697Z,99321.95
2018-12-03T17:39:57.113Z,99326.99
2018-12-03T17:44:59.254Z,99336.08
2018-12-03T17:50:01.441Z,99343.63
2018-12-03T17:55:04.680Z,99337.51
2018-12-03T18:00:11.109Z,99346.95
2018-12-03T18:05:13.328Z,99350.72
2018-12-03T18:10:15.644Z,99355.86
2018-12-03T18:15:18.030Z,99345.83
2018-12-03T18:20:20.225Z,99344.23
2018-12-03T18:25:22.382Z,99346.39
2018-12-03T18:30:24.728Z,99349.70
2018-12-03T18:35:26.964Z,99351.34
2018-12-03T18:40:29.217Z,99352.20
2018-12-03T18:45:31.534Z,99345.04
2018-12-03T18:50:35.714Z,99348.30
2018-12-03T18:55:37.878Z,99358.25
2018-12-03T19:00:40.946Z,99363.71
2018-12-03T19:05:43.139Z,99367.67
2018-12-03T19:10:45.496Z,99356.61
2018-12-03T19:15:47.678Z,99361.03
2018-12-03T19:20:49.951Z,99358.25
2018-12-03T19:25:52.849Z,99363.41
2018-12-03T19:30:56.802Z,99367.05
2018-12-03T19:35:59.932Z,99363.89
2018-12-03T19:41:02.808Z,99368.47
2018-12-03T19:46:05.407Z,99363.98
2018-12-03T19:51:10.334Z,99367.47
2018-12-03T19:56:14.981Z,99368.09
2018-12-03T20:01:20.191Z,99380.96
2018-12-03T20:06:25.735Z,99382.94
2018-12-03T20:11:30.895Z,99388.88
2018-12-03T20:16:36.399Z,99392.52
2018-12-03T20:21:42.165Z,99397.45
2018-12-03T20:27:26.794Z,99409.27
2018-12-03T20:32:35.838Z,99407.21
2018-12-03T20:37:52.912Z,99408.02
2018-12-03T20:43:05.004Z,99401.97
2018-12-03T20:48:11.160Z,99405.85
2018-12-03T20:53:20.720Z,99412.75
2018-12-03T20:58:27.255Z,99419.94
2018-12-03T21:03:35.805Z,99433.68
2018-12-03T21:08:42.521Z,99444.91
2018-12-03T21:13:48.801Z,99464.44
2018-12-03T21:18:56.091Z,99475.66
2018-12-03T21:24:02.249Z,99486.95
2018-12-03T21:29:08.909Z,99491.16
2018-12-03T21:34:13.924Z,99502.39
2018-12-03T21:39:18.249Z,99508.56
2018-12-03T21:44:20.658Z,99500.00
2018-12-03T21:49:22.868Z,99510.41
2018-12-03T21:54:25.154Z,99519.52
2018-12-03T21:59:27.323Z,99519.88
2018-12-03T22:04:29.413Z,99527.21
2018-12-03T22:09:32.152Z,99528.97
2018-12-03T22:14:34.258Z,99535.53
2018-12-03T22:19:36.469Z,99531.70
2018-12-03T22:24:38.573Z,99530.80
2018-12-03T22:29:40.898Z,99533.81
2018-12-03T22:34:43.105Z,99540.62
2018-12-03T22:39:46.436Z,99545.11
2018-12-03T22:44:49.161Z,99545.87
2018-12-03T22:49:51.326Z,99561.19
2018-12-03T22:54:53.530Z,99571.15
2018-12-03T22:59:55.610Z,99575.63
2018-12-03T23:04:57.797Z,99588.44
2018-12-03T23:09:59.907Z,99607.75
2018-12-03T23:15:02.419Z,99617.91
2018-12-03T23:20:05.324Z,99629.22
2018-12-03T23:25:07.687Z,99635.37
2018-12-03T23:30:09.895Z,99648.23
2018-12-03T23:35:12.149Z,99655.07
2018-12-03T23:40:14.232Z,99670.61
2018-12-03T23:45:16.350Z,99671.95
2018-12-03T23:50:18.545Z,99675.43
2018-12-03T23:55:20.634Z,99683.63
